Time;durP1;ratioP1;P1;durP2;ratioP2;P2;SDS_P1;SDS_P2;PMS_P1;PMS_P2;Temp;Humidity;BMP_temperature;BMP_pressure;BME280_temperature;BME280_humidity;BME280_pressure;Samples;Min_cycle;Max_cycle;Signal;HPM_P1;HPM_P2
2023/07/10 00:01:01;;;;;;;11.53;10.47;;;24.40;99.90;;;;;;4992983;28;20601;-79
2023/07/10 00:03:29;;;;;;;10.93;9.93;;;24.40;99.90;;;;;;4992429;28;20974;-79
2023/07/10 00:05:56;;;;;;;10.77;9.80;;;24.40;99.90;;;;;;5008717;28;20644;-79
2023/07/10 00:08:22;;;;;;;10.80;9.70;;;24.40;99.90;;;;;;4991933;28;20596;-79
2023/07/10 00:10:50;;;;;;;10.90;9.80;;;24.30;99.90;;;;;;4992522;28;21189;-79
2023/07/10 00:13:21;;;;;;;11.33;9.73;;;24.30;99.90;;;;;;4993207;28;20577;-79
2023/07/10 00:15:48;;;;;;;11.57;10.20;;;24.30;99.90;;;;;;4993700;28;20597;-79
2023/07/10 00:18:15;;;;;;;10.50;8.33;;;24.30;99.90;;;;;;4991598;28;20590;-80
2023/07/10 00:20:42;;;;;;;11.43;9.90;;;24.30;99.90;;;;;;4993578;28;20597;-79
2023/07/10 00:23:07;;;;;;;11.77;9.57;;;24.40;99.90;;;;;;4991639;28;20664;-80
2023/07/10 00:25:33;;;;;;;15.23;10.87;;;24.40;99.90;;;;;;4993388;28;21185;-79
2023/07/10 00:27:59;;;;;;;12.00;9.70;;;24.40;99.90;;;;;;5008125;28;20281;-79
2023/07/10 00:30:26;;;;;;;14.70;9.70;;;24.40;99.90;;;;;;5008394;28;20681;-80
2023/07/10 00:32:54;;;;;;;8.90;8.00;;;24.50;99.90;;;;;;4991846;28;20207;-79
2023/07/10 00:35:24;;;;;;;8.50;7.70;;;24.50;99.90;;;;;;4992945;28;20586;-79
2023/07/10 00:38:02;;;;;;;9.87;8.80;;;24.50;99.90;;;;;;4991587;28;20590;-79
2023/07/10 00:40:30;;;;;;;9.70;8.70;;;24.60;99.90;;;;;;5008243;28;20578;-80
2023/07/10 00:43:20;;;;;;;10.33;8.67;;;24.60;99.90;;;;;;5008216;28;20667;-79
2023/07/10 00:45:48;;;;;;;8.90;8.10;;;24.60;99.90;;;;;;4991267;28;20728;-79
2023/07/10 00:48:20;;;;;;;8.60;7.43;;;24.60;99.90;;;;;;4991552;28;20594;-79
2023/07/10 00:50:48;;;;;;;7.60;6.90;;;24.60;99.90;;;;;;4975649;28;20967;-79
2023/07/10 00:53:27;;;;;;;8.90;7.67;;;24.70;99.90;;;;;;4990652;28;20632;-79
2023/07/10 00:55:56;;;;;;;8.87;7.97;;;24.60;99.90;;;;;;4992793;28;20622;-79
2023/07/10 00:58:32;;;;;;;7.27;6.57;;;24.70;99.90;;;;;;4991437;28;20597;-78
2023/07/10 01:01:08;;;;;;;9.33;6.73;;;24.70;99.90;;;;;;4975286;28;20680;-79
2023/07/10 01:03:39;;;;;;;9.10;7.83;;;24.70;99.90;;;;;;5008174;28;20593;-78
2023/07/10 01:06:17;;;;;;;9.27;6.20;;;24.70;99.90;;;;;;5007333;28;20602;-79
2023/07/10 01:08:48;;;;;;;8.03;7.23;;;24.70;99.90;;;;;;4991322;28;20602;-78
2023/07/10 01:11:15;;;;;;;8.00;7.30;;;24.70;99.90;;;;;;5007400;28;20656;-79
2023/07/10 01:13:44;;;;;;;7.77;6.97;;;24.70;99.90;;;;;;4991250;28;20634;-79
2023/07/10 01:16:11;;;;;;;7.10;6.40;;;24.60;99.90;;;;;;5006744;28;20771;-79
2023/07/10 01:18:38;;;;;;;7.13;6.33;;;24.60;99.90;;;;;;4974887;28;20601;-79
2023/07/10 01:21:26;;;;;;;8.67;7.17;;;24.60;99.90;;;;;;4990794;28;20609;-79
2023/07/10 01:23:55;;;;;;;10.30;9.03;;;24.60;99.90;;;;;;4975177;28;20583;-78
2023/07/10 01:26:22;;;;;;;11.90;9.47;;;24.70;99.90;;;;;;4974313;28;20669;-79
2023/07/10 01:28:48;;;;;;;8.87;7.10;;;24.60;99.90;;;;;;4990792;28;20927;-79
2023/07/10 01:31:17;;;;;;;10.70;9.20;;;24.60;99.90;;;;;;4974850;28;20617;-79
2023/07/10 01:33:53;;;;;;;8.70;7.80;;;24.70;99.90;;;;;;4992216;28;20198;-79
2023/07/10 01:36:23;;;;;;;11.00;8.30;;;24.60;99.90;;;;;;4991169;28;21035;-79
2023/07/10 01:38:55;;;;;;;9.90;8.90;;;24.60;99.90;;;;;;5006831;28;21146;-79
2023/07/10 01:41:37;;;;;;;9.13;7.30;;;24.60;99.90;;;;;;4990388;28;20586;-79
2023/07/10 01:44:22;;;;;;;9.40;8.50;;;24.50;99.90;;;;;;4992131;28;20574;-79
2023/07/10 01:46:49;;;;;;;10.77;9.10;;;24.50;99.90;;;;;;4991574;28;20741;-79
2023/07/10 01:49:17;;;;;;;14.10;9.70;;;24.50;99.90;;;;;;4974257;28;20587;-79
2023/07/10 01:51:44;;;;;;;9.53;8.33;;;24.40;99.90;;;;;;4974385;28;20657;-79
2023/07/10 01:54:17;;;;;;;11.10;8.40;;;24.40;99.90;;;;;;4991660;28;20637;-79
2023/07/10 01:56:44;;;;;;;12.93;9.43;;;24.40;99.90;;;;;;4990500;28;20708;-79
2023/07/10 01:59:12;;;;;;;9.10;7.50;;;24.30;99.90;;;;;;4990562;28;20593;-79
2023/07/10 02:01:37;;;;;;;10.40;8.90;;;24.40;99.90;;;;;;4975579;28;20673;-79
2023/07/10 02:04:03;;;;;;;13.40;10.27;;;24.30;99.90;;;;;;4991154;28;21277;-79
2023/07/10 02:06:35;;;;;;;14.43;9.43;;;24.30;99.90;;;;;;4991418;28;20193;-79
2023/07/10 02:09:01;;;;;;;13.73;9.30;;;24.30;99.90;;;;;;4990686;28;20655;-79
2023/07/10 02:11:26;;;;;;;11.87;9.83;;;24.30;99.90;;;;;;5006467;28;21305;-79
2023/07/10 02:13:52;;;;;;;10.60;8.30;;;24.20;99.90;;;;;;4990207;28;20638;-79
2023/07/10 02:16:18;;;;;;;13.07;8.80;;;24.20;99.90;;;;;;4974136;28;20187;-79
2023/07/10 02:18:43;;;;;;;12.77;9.83;;;24.20;99.90;;;;;;4989560;28;20330;-79
2023/07/10 02:21:09;;;;;;;10.23;8.83;;;24.20;99.90;;;;;;4973740;28;20237;-79
2023/07/10 02:23:37;;;;;;;12.20;10.20;;;24.20;99.90;;;;;;4991635;28;20175;-79
2023/07/10 02:26:03;;;;;;;13.97;9.83;;;24.20;99.90;;;;;;4973277;28;20917;-78
2023/07/10 02:28:29;;;;;;;10.50;9.50;;;24.20;99.90;;;;;;5005952;28;20630;-79
2023/07/10 02:30:55;;;;;;;11.60;10.50;;;24.20;99.90;;;;;;4989553;28;20665;-79
2023/07/10 02:33:22;;;;;;;10.90;9.90;;;24.20;99.90;;;;;;5005516;28;20309;-79
2023/07/10 02:35:48;;;;;;;12.43;9.83;;;24.10;99.90;;;;;;4989899;28;21206;-79
2023/07/10 02:38:15;;;;;;;11.53;10.20;;;24.10;99.90;;;;;;4989852;28;20628;-79
2023/07/10 02:40:43;;;;;;;13.40;12.23;;;24.10;99.90;;;;;;4990216;28;20601;-79
2023/07/10 02:43:09;;;;;;;12.20;11.10;;;24.00;99.90;;;;;;4973750;28;20586;-79
2023/07/10 02:45:35;;;;;;;14.97;11.73;;;24.00;99.90;;;;;;4973323;28;20676;-79
2023/07/10 02:48:01;;;;;;;11.00;10.00;;;24.00;99.90;;;;;;5005479;28;20178;-79
2023/07/10 02:50:27;;;;;;;12.07;10.80;;;24.00;99.90;;;;;;4990521;28;20645;-79
2023/07/10 02:52:53;;;;;;;12.37;11.20;;;24.00;99.90;;;;;;4989187;28;20210;-79
2023/07/10 02:55:19;;;;;;;13.43;11.97;;;24.00;99.90;;;;;;4989519;28;20171;-77
2023/07/10 02:57:44;;;;;;;13.03;11.80;;;23.90;99.90;;;;;;4988835;28;20609;-80
2023/07/10 03:00:11;;;;;;;14.07;12.23;;;23.90;99.90;;;;;;4957537;28;20606;-80
2023/07/10 03:02:36;;;;;;;15.07;13.40;;;23.90;99.90;;;;;;4990482;28;20170;-79
2023/07/10 03:05:03;;;;;;;13.90;12.10;;;23.80;99.90;;;;;;5005901;28;20613;-79
2023/07/10 03:07:29;;;;;;;15.10;12.90;;;23.80;99.90;;;;;;4988873;28;20190;-80
2023/07/10 03:09:55;;;;;;;17.67;15.97;;;23.80;99.90;;;;;;4991246;28;21021;-79
2023/07/10 03:12:21;;;;;;;18.77;16.87;;;23.70;99.90;;;;;;4990623;28;20661;-79
2023/07/10 03:14:48;;;;;;;19.30;17.40;;;23.70;99.90;;;;;;4991104;28;20175;-79
2023/07/10 03:17:14;;;;;;;21.63;19.43;;;23.70;99.90;;;;;;4993481;28;20197;-79
2023/07/10 03:19:40;;;;;;;22.87;20.57;;;23.70;99.90;;;;;;4977584;28;20570;-79
2023/07/10 03:22:06;;;;;;;19.60;17.70;;;23.70;99.90;;;;;;4993194;28;20285;-79
2023/07/10 03:24:32;;;;;;;19.67;17.80;;;23.70;99.90;;;;;;4977698;28;20193;-79
2023/07/10 03:26:58;;;;;;;19.00;17.10;;;23.60;99.90;;;;;;4977573;28;20700;-79
2023/07/10 03:29:23;;;;;;;20.73;18.73;;;23.60;99.90;;;;;;4994205;28;20179;-79
2023/07/10 03:31:49;;;;;;;18.03;16.23;;;23.60;99.90;;;;;;4978323;28;20203;-77
2023/07/10 03:34:15;;;;;;;21.07;18.67;;;23.50;99.90;;;;;;4998693;28;20191;-78
2023/07/10 03:36:42;;;;;;;19.47;17.67;;;23.50;99.90;;;;;;4997686;28;20202;-78
2023/07/10 03:39:08;;;;;;;19.43;17.53;;;23.50;99.90;;;;;;4995372;28;20590;-78
2023/07/10 03:41:34;;;;;;;15.33;13.90;;;23.40;99.90;;;;;;5000457;28;20592;-78
2023/07/10 03:44:00;;;;;;;14.77;13.27;;;23.40;99.90;;;;;;4998774;28;20583;-78
2023/07/10 03:46:27;;;;;;;15.03;13.30;;;23.40;99.90;;;;;;4972010;28;20630;-78
2023/07/10 03:48:53;;;;;;;14.50;13.10;;;23.30;99.90;;;;;;5005679;28;20688;-78
2023/07/10 03:51:19;;;;;;;14.87;11.83;;;23.30;99.90;;;;;;5005387;28;20607;-78
2023/07/10 03:53:46;;;;;;;15.80;10.93;;;23.30;99.90;;;;;;4989668;28;20638;-78
2023/07/10 03:56:11;;;;;;;13.10;11.80;;;23.30;99.90;;;;;;5006634;28;20626;-78
2023/07/10 03:58:43;;;;;;;11.83;10.60;;;23.30;99.90;;;;;;5019110;28;20583;-78
2023/07/10 04:01:10;;;;;;;10.40;9.40;;;23.30;99.90;;;;;;4974821;28;20215;-78
2023/07/10 04:03:37;;;;;;;12.83;10.30;;;23.40;99.90;;;;;;5014436;28;20672;-78
2023/07/10 04:06:05;;;;;;;12.83;11.43;;;23.40;99.90;;;;;;5008575;28;20617;-78
2023/07/10 04:08:34;;;;;;;12.23;10.87;;;23.30;99.90;;;;;;4992065;28;20585;-78
2023/07/10 04:11:03;;;;;;;11.10;9.73;;;23.40;99.90;;;;;;5009157;28;20574;-78
2023/07/10 04:13:29;;;;;;;10.37;9.27;;;23.40;99.90;;;;;;4992516;28;20641;-78
2023/07/10 04:16:02;;;;;;;11.07;9.97;;;23.40;99.90;;;;;;4992340;28;20598;-78
2023/07/10 04:18:30;;;;;;;10.20;9.20;;;23.40;99.90;;;;;;4976211;28;20179;-78
2023/07/10 04:20:57;;;;;;;10.03;8.80;;;23.40;99.90;;;;;;4992342;28;20590;-78
2023/07/10 04:23:23;;;;;;;10.30;9.20;;;23.40;99.90;;;;;;4993399;28;20573;-78
2023/07/10 04:25:49;;;;;;;12.20;11.00;;;23.40;99.90;;;;;;4993460;28;20605;-78
2023/07/10 04:28:14;;;;;;;11.70;10.27;;;23.40;99.90;;;;;;5007422;28;20626;-78
2023/07/10 04:30:40;;;;;;;10.10;9.13;;;23.40;99.90;;;;;;4991989;28;20610;-78
2023/07/10 04:33:08;;;;;;;12.07;10.47;;;23.40;99.90;;;;;;4993573;28;20659;-78
2023/07/10 04:35:34;;;;;;;13.97;9.53;;;23.40;99.90;;;;;;4993336;28;20265;-78
2023/07/10 04:38:00;;;;;;;11.83;10.03;;;23.30;99.90;;;;;;4995224;28;20681;-78
2023/07/10 04:40:26;;;;;;;16.20;11.37;;;23.30;99.90;;;;;;5009188;28;21099;-78
2023/07/10 04:42:54;;;;;;;13.50;11.30;;;23.30;99.90;;;;;;4994184;28;20601;-78
2023/07/10 04:45:20;;;;;;;16.27;11.30;;;23.30;99.90;;;;;;4975798;28;20185;-78
2023/07/10 04:47:46;;;;;;;13.73;12.33;;;23.30;99.90;;;;;;4975582;28;20680;-78
2023/07/10 04:50:11;;;;;;;12.53;11.20;;;23.30;99.90;;;;;;4992230;28;20186;-78
2023/07/10 04:52:37;;;;;;;11.40;10.23;;;23.30;99.90;;;;;;4991804;28;20206;-78
2023/07/10 04:55:03;;;;;;;15.37;10.73;;;23.30;99.90;;;;;;4992208;28;20206;-78
2023/07/10 04:57:34;;;;;;;13.20;11.63;;;23.30;99.90;;;;;;4993765;28;20650;-77
2023/07/10 05:00:00;;;;;;;20.43;12.93;;;23.30;99.90;;;;;;4992879;28;20589;-78
2023/07/10 05:02:26;;;;;;;14.37;12.03;;;23.30;99.90;;;;;;5003061;28;20589;-78
2023/07/10 05:04:52;;;;;;;15.07;11.90;;;23.30;99.90;;;;;;4973160;28;20592;-77
2023/07/10 05:07:18;;;;;;;14.90;13.30;;;23.30;99.90;;;;;;4988900;28;20200;-77
2023/07/10 05:09:43;;;;;;;14.70;11.03;;;23.30;99.90;;;;;;4990783;28;20237;-77
2023/07/10 05:12:09;;;;;;;19.37;13.47;;;23.30;99.90;;;;;;4991622;28;20693;-77
2023/07/10 05:14:35;;;;;;;14.10;11.10;;;23.30;99.90;;;;;;4993357;28;20559;-77
2023/07/10 05:17:00;;;;;;;19.97;11.33;;;23.30;99.90;;;;;;4991248;28;20199;-77
2023/07/10 05:19:26;;;;;;;12.63;9.23;;;23.30;99.90;;;;;;4991764;28;20215;-77
2023/07/10 05:21:52;;;;;;;15.30;10.17;;;23.30;99.90;;;;;;4992524;28;20629;-77
2023/07/10 05:24:18;;;;;;;14.77;10.53;;;23.40;99.90;;;;;;4990945;28;20234;-77
2023/07/10 05:26:43;;;;;;;11.47;9.87;;;23.40;99.90;;;;;;4997087;28;20194;-77
2023/07/10 05:29:09;;;;;;;9.37;7.90;;;23.30;99.90;;;;;;4991118;28;20199;-76
2023/07/10 05:31:34;;;;;;;11.97;7.87;;;23.30;99.90;;;;;;4992140;28;20238;-78
2023/07/10 05:34:00;;;;;;;9.30;7.00;;;23.40;99.90;;;;;;5007331;28;20600;-78
2023/07/10 05:36:26;;;;;;;9.40;5.70;;;23.40;99.90;;;;;;4990820;28;20279;-77
2023/07/10 05:38:52;;;;;;;10.60;5.67;;;23.30;99.90;;;;;;4990063;28;20586;-78
2023/07/10 05:41:19;;;;;;;10.63;5.57;;;23.30;99.90;;;;;;4991825;28;20179;-78
2023/07/10 05:43:45;;;;;;;8.23;5.30;;;23.30;99.90;;;;;;4991164;28;20588;-77
2023/07/10 05:46:12;;;;;;;6.30;5.10;;;23.30;99.90;;;;;;4975075;28;20991;-77
2023/07/10 05:48:38;;;;;;;8.23;5.03;;;23.30;99.90;;;;;;4991634;28;20705;-77
2023/07/10 05:51:04;;;;;;;8.93;5.07;;;23.30;99.90;;;;;;4994406;28;20638;-77
2023/07/10 05:53:33;;;;;;;9.50;5.80;;;23.30;99.90;;;;;;4995571;28;20629;-77
2023/07/10 05:56:00;;;;;;;6.77;5.03;;;23.30;99.90;;;;;;4975218;28;20606;-77
2023/07/10 05:58:29;;;;;;;6.93;5.83;;;23.30;99.90;;;;;;4994326;28;21153;-77
2023/07/10 06:01:00;;;;;;;6.20;5.03;;;23.30;99.90;;;;;;4993539;28;20669;-77
2023/07/10 06:03:30;;;;;;;9.37;4.30;;;23.30;99.90;;;;;;4992379;28;20562;-78
2023/07/10 06:05:58;;;;;;;9.30;5.30;;;23.40;99.90;;;;;;4985702;28;20615;-78
2023/07/10 06:08:25;;;;;;;8.30;5.40;;;23.40;99.90;;;;;;4984323;28;20618;-77
2023/07/10 06:10:52;;;;;;;15.03;5.37;;;23.50;99.90;;;;;;4991272;28;20668;-77
2023/07/10 06:13:17;;;;;;;4.53;4.03;;;23.50;99.90;;;;;;4991784;28;21254;-77
2023/07/10 06:15:47;;;;;;;8.60;4.30;;;23.70;99.90;;;;;;4991514;28;20682;-77
2023/07/10 06:18:14;;;;;;;6.97;4.63;;;23.90;99.90;;;;;;4991126;28;20171;-78
2023/07/10 06:20:40;;;;;;;8.23;4.63;;;24.30;99.90;;;;;;4989944;28;21074;-77
2023/07/10 06:23:06;;;;;;;6.40;3.70;;;24.60;99.90;;;;;;4990920;28;20582;-78
2023/07/10 06:25:32;;;;;;;6.50;4.33;;;25.00;99.90;;;;;;4989184;28;20622;-78
2023/07/10 06:27:57;;;;;;;5.33;3.73;;;25.30;99.90;;;;;;4986683;28;20651;-77
2023/07/10 06:30:23;;;;;;;6.40;4.10;;;25.60;99.90;;;;;;4970859;28;20206;-78
2023/07/10 06:32:50;;;;;;;8.60;4.60;;;26.30;99.90;;;;;;4981904;28;20336;-77
2023/07/10 06:35:15;;;;;;;5.27;3.70;;;27.10;99.90;;;;;;4989893;28;21046;-77
2023/07/10 06:37:42;;;;;;;5.33;3.60;;;27.90;99.90;;;;;;4989623;28;20729;-78
2023/07/10 06:40:14;;;;;;;5.60;3.77;;;28.60;99.90;;;;;;4991660;28;20183;-77
2023/07/10 06:42:41;;;;;;;6.27;3.17;;;29.40;99.90;;;;;;4989177;28;20943;-78
2023/07/10 06:45:11;;;;;;;6.27;3.70;;;30.20;99.90;;;;;;5006124;28;20582;-77
2023/07/10 06:47:43;;;;;;;5.70;3.83;;;30.90;99.90;;;;;;5005536;28;20603;-78
2023/07/10 06:50:11;;;;;;;6.80;3.47;;;31.40;99.90;;;;;;4990415;28;20592;-77
2023/07/10 06:52:39;;;;;;;7.90;4.20;;;32.20;99.90;;;;;;4990194;28;20650;-78
2023/07/10 06:55:07;;;;;;;7.43;3.80;;;32.90;99.90;;;;;;5000859;28;20707;-79
2023/07/10 06:57:33;;;;;;;4.43;3.20;;;33.20;99.90;;;;;;4988950;28;20643;-78
2023/07/10 06:59:59;;;;;;;4.37;2.80;;;33.50;99.90;;;;;;4989490;28;20641;-77
2023/07/10 07:02:25;;;;;;;6.13;3.17;;;33.50;99.90;;;;;;5005448;28;20605;-77
2023/07/10 07:04:51;;;;;;;4.90;3.63;;;33.40;99.90;;;;;;5001877;28;20599;-78
2023/07/10 07:07:16;;;;;;;8.53;3.47;;;33.20;99.90;;;;;;4989214;28;20708;-78
2023/07/10 07:09:43;;;;;;;5.10;2.80;;;33.00;99.90;;;;;;5011321;28;20174;-78
2023/07/10 07:12:10;;;;;;;7.87;3.43;;;32.90;99.90;;;;;;5008600;28;20223;-78
2023/07/10 07:14:36;;;;;;;5.87;3.47;;;32.60;99.90;;;;;;5008793;28;20933;-78
2023/07/10 07:17:04;;;;;;;4.50;2.87;;;32.30;99.90;;;;;;5007136;28;21045;-78
2023/07/10 07:19:29;;;;;;;5.93;3.00;;;31.90;99.90;;;;;;4989414;28;20673;-78
2023/07/10 07:21:55;;;;;;;4.70;2.97;;;31.80;99.90;;;;;;4990418;28;20697;-78
2023/07/10 07:24:21;;;;;;;5.77;2.80;;;31.80;99.90;;;;;;4989664;28;20179;-77
2023/07/10 07:26:46;;;;;;;5.77;2.47;;;31.70;99.90;;;;;;4989502;28;20221;-77
2023/07/10 07:29:12;;;;;;;4.93;3.50;;;31.60;99.90;;;;;;4988673;28;20276;-77
2023/07/10 07:31:39;;;;;;;5.23;2.40;;;31.50;99.90;;;;;;4990193;28;20182;-78
2023/07/10 07:34:05;;;;;;;5.93;2.80;;;31.50;99.90;;;;;;4989237;28;20214;-78
2023/07/10 07:36:34;;;;;;;6.70;2.40;;;31.80;99.90;;;;;;4989536;28;20648;-78
2023/07/10 07:39:03;;;;;;;6.37;2.10;;;32.40;99.90;;;;;;4988464;28;20591;-78
2023/07/10 07:41:31;;;;;;;2.80;1.90;;;33.20;99.90;;;;;;4988650;28;20707;-78
2023/07/10 07:43:58;;;;;;;5.13;2.10;;;33.90;99.90;;;;;;4990350;28;20574;-78
2023/07/10 07:46:25;;;;;;;4.90;2.30;;;34.70;99.90;;;;;;4992545;28;20636;-78
2023/07/10 07:48:50;;;;;;;5.70;2.60;;;35.50;99.90;;;;;;4988163;28;20606;-78
2023/07/10 07:51:16;;;;;;;4.27;2.90;;;36.20;99.80;;;;;;4973340;28;20598;-78
2023/07/10 07:53:42;;;;;;;3.60;2.30;;;36.90;98.40;;;;;;4985756;28;20214;-78
2023/07/10 07:56:09;;;;;;;4.23;2.10;;;37.50;97.40;;;;;;4985483;28;21171;-78
2023/07/10 07:58:36;;;;;;;3.50;2.50;;;38.10;95.10;;;;;;4984724;28;20171;-78
2023/07/10 08:01:02;;;;;;;3.20;2.23;;;38.40;92.70;;;;;;4985715;28;20591;-78
2023/07/10 08:03:29;;;;;;;3.17;1.93;;;38.70;90.50;;;;;;4974376;28;20582;-76
2023/07/10 08:05:54;;;;;;;4.40;2.10;;;38.90;89.10;;;;;;4992231;28;20621;-76
2023/07/10 08:08:21;;;;;;;3.87;2.20;;;38.80;85.00;;;;;;4993047;28;20574;-76
2023/07/10 08:10:49;;;;;;;3.50;2.23;;;38.50;81.20;;;;;;4993322;28;20262;-77
2023/07/10 08:13:17;;;;;;;5.17;2.43;;;38.30;78.70;;;;;;4993171;28;20672;-77
2023/07/10 08:15:43;;;;;;;6.77;2.80;;;38.30;78.40;;;;;;4992944;28;20709;-77
2023/07/10 08:18:10;;;;;;;3.00;1.93;;;38.40;77.00;;;;;;5007934;28;20570;-77
2023/07/10 08:20:36;;;;;;;2.73;1.87;;;38.60;77.00;;;;;;4991867;28;20593;-77
2023/07/10 08:23:03;;;;;;;5.20;1.90;;;38.80;75.60;;;;;;4994060;28;20601;-77
2023/07/10 08:25:29;;;;;;;5.70;2.80;;;39.10;74.60;;;;;;4992545;28;20745;-75
2023/07/10 08:27:56;;;;;;;4.57;2.33;;;39.10;71.50;;;;;;4990960;28;21228;-75
2023/07/10 08:30:22;;;;;;;6.30;1.83;;;38.90;69.60;;;;;;4991985;28;20935;-74
2023/07/10 08:32:48;;;;;;;4.97;1.60;;;39.00;69.60;;;;;;4991817;28;20772;-74
2023/07/10 08:35:14;;;;;;;4.00;1.37;;;39.10;67.90;;;;;;4992983;28;21188;-75
2023/07/10 08:37:40;;;;;;;6.83;3.00;;;39.00;66.70;;;;;;4992503;28;20179;-75
2023/07/10 08:40:12;;;;;;;2.73;1.30;;;39.00;66.00;;;;;;4993404;28;20210;-74
2023/07/10 08:42:39;;;;;;;3.33;1.33;;;38.80;63.60;;;;;;5007561;28;20240;-74
2023/07/10 08:45:12;;;;;;;3.97;1.23;;;38.50;63.20;;;;;;4992863;28;20937;-75
2023/07/10 08:47:46;;;;;;;4.50;1.70;;;38.50;62.40;;;;;;4990729;28;20625;-74
2023/07/10 08:50:15;;;;;;;2.20;1.00;;;38.50;61.90;;;;;;4975152;28;21227;-75
2023/07/10 08:52:57;;;;;;;3.50;0.93;;;38.70;62.80;;;;;;4991165;28;20752;-75
2023/07/10 08:55:29;;;;;;;1.87;0.80;;;38.90;60.60;;;;;;4981939;28;20583;-75
2023/07/10 08:58:00;;;;;;;1.87;0.80;;;39.10;59.70;;;;;;4971914;28;20593;-75
2023/07/10 09:00:30;;;;;;;2.30;0.90;;;39.20;59.10;;;;;;4975230;28;21220;-76
2023/07/10 09:03:20;;;;;;;1.97;0.90;;;39.40;58.80;;;;;;4973391;28;20637;-76
2023/07/10 09:05:50;;;;;;;2.47;1.27;;;39.60;58.40;;;;;;4972638;28;20674;-75
2023/07/10 09:08:17;;;;;;;2.77;1.00;;;39.70;56.10;;;;;;4987742;28;20607;-75
2023/07/10 09:10:47;;;;;;;2.37;1.30;;;39.80;56.20;;;;;;4987919;28;20622;-76
2023/07/10 09:13:23;;;;;;;2.83;1.30;;;40.10;55.50;;;;;;4972775;28;20642;-75
2023/07/10 09:15:55;;;;;;;3.07;1.23;;;40.40;55.90;;;;;;4971219;28;20618;-75
2023/07/10 09:18:29;;;;;;;2.03;1.33;;;40.90;55.20;;;;;;4987836;28;20602;-75
2023/07/10 09:20:59;;;;;;;3.00;1.43;;;41.30;54.60;;;;;;4971575;28;21131;-76
2023/07/10 09:23:33;;;;;;;2.63;1.10;;;41.70;53.40;;;;;;4988264;28;20606;-76
2023/07/10 09:26:20;;;;;;;2.70;1.43;;;42.20;52.70;;;;;;4971295;28;21269;-75
2023/07/10 09:28:57;;;;;;;1.87;1.10;;;42.60;52.60;;;;;;4972620;28;20586;-75
2023/07/10 09:31:35;;;;;;;2.47;1.20;;;43.00;50.40;;;;;;4971170;28;20590;-74
2023/07/10 09:34:01;;;;;;;2.83;1.13;;;43.30;49.00;;;;;;4987692;28;20642;-75
2023/07/10 09:36:27;;;;;;;2.33;0.90;;;43.60;48.90;;;;;;4974239;28;20615;-74
2023/07/10 09:38:53;;;;;;;3.33;1.20;;;43.80;47.70;;;;;;4964470;28;20593;-76
2023/07/10 09:41:22;;;;;;;1.87;1.00;;;44.00;46.10;;;;;;4992098;28;20577;-74
2023/07/10 09:43:56;;;;;;;5.47;1.30;;;44.00;45.00;;;;;;4991787;28;20640;-74
2023/07/10 09:46:24;;;;;;;3.00;0.80;;;43.70;43.40;;;;;;5006971;28;20638;-75
2023/07/10 09:48:53;;;;;;;4.30;1.00;;;43.00;43.10;;;;;;4989895;28;20593;-74
2023/07/10 09:51:19;;;;;;;1.70;0.90;;;42.40;42.30;;;;;;4991329;28;20913;-75
2023/07/10 09:53:53;;;;;;;1.63;0.87;;;41.70;42.30;;;;;;4991538;28;20657;-75
2023/07/10 09:56:38;;;;;;;1.90;0.87;;;41.40;42.80;;;;;;4973367;28;21035;-75
2023/07/10 09:59:24;;;;;;;4.47;0.80;;;41.10;42.50;;;;;;4972080;28;20587;-75
2023/07/10 10:01:51;;;;;;;2.33;0.80;;;41.00;43.20;;;;;;4987075;28;20610;-75
2023/07/10 10:04:26;;;;;;;2.00;1.00;;;41.00;43.60;;;;;;4989258;28;20651;-75
2023/07/10 10:07:04;;;;;;;2.10;0.53;;;41.20;42.90;;;;;;4989604;28;20636;-75
2023/07/10 10:09:31;;;;;;;2.10;0.80;;;41.30;41.10;;;;;;4991467;28;20577;-76
2023/07/10 10:12:25;;;;;;;1.57;0.60;;;41.50;41.50;;;;;;5007098;28;21109;-75
2023/07/10 10:15:01;;;;;;;1.70;0.60;;;41.70;41.50;;;;;;4991538;28;20590;-74
2023/07/10 10:17:30;;;;;;;2.10;0.70;;;41.70;40.40;;;;;;4991353;28;20617;-74
2023/07/10 10:20:01;;;;;;;2.13;0.60;;;41.90;40.00;;;;;;4990319;28;20582;-74
2023/07/10 10:22:32;;;;;;;1.50;0.80;;;41.90;39.80;;;;;;5006059;28;20605;-74
2023/07/10 10:24:58;;;;;;;1.53;0.90;;;42.10;40.00;;;;;;5006202;28;21553;-76
2023/07/10 10:27:56;;;;;;;2.20;0.87;;;42.20;39.90;;;;;;4988536;28;20653;-75
2023/07/10 10:30:38;;;;;;;1.47;0.70;;;42.20;39.90;;;;;;4981306;28;20273;-75
2023/07/10 10:33:18;;;;;;;1.97;0.80;;;42.20;38.60;;;;;;4989021;28;20625;-76
2023/07/10 10:35:55;;;;;;;2.80;0.73;;;42.00;38.60;;;;;;4989868;28;20644;-75
2023/07/10 10:38:39;;;;;;;1.50;0.63;;;41.70;38.00;;;;;;4988831;28;20578;-76
2023/07/10 10:41:36;;;;;;;1.83;0.70;;;41.40;38.30;;;;;;5006150;28;20601;-76
2023/07/10 10:44:42;;;;;;;1.70;0.83;;;41.20;38.40;;;;;;4989559;28;20942;-75
2023/07/10 10:47:40;;;;;;;1.93;0.90;;;40.90;38.50;;;;;;4956048;28;21029;-76
2023/07/10 10:50:39;;;;;;;2.57;0.73;;;40.80;38.80;;;;;;4974383;28;20625;-75
2023/07/10 10:53:46;;;;;;;2.13;0.90;;;40.70;39.10;;;;;;4990412;28;20752;-75
2023/07/10 10:56:26;;;;;;;3.40;0.90;;;40.60;38.80;;;;;;4972011;28;20630;-75
2023/07/10 10:59:11;;;;;;;2.37;1.00;;;40.40;38.60;;;;;;4970866;28;20945;-76
2023/07/10 11:01:56;;;;;;;4.50;0.73;;;40.30;38.50;;;;;;4971078;28;20571;-76
2023/07/10 11:04:31;;;;;;;2.23;0.80;;;40.10;38.20;;;;;;4971278;28;20605;-75
2023/07/10 11:07:03;;;;;;;1.93;0.73;;;40.00;38.30;;;;;;4969629;28;20614;-75
2023/07/10 11:09:42;;;;;;;1.90;0.70;;;39.80;38.20;;;;;;4971028;28;21115;-75
2023/07/10 11:12:20;;;;;;;1.50;0.70;;;39.70;38.40;;;;;;4971111;28;20654;-75
2023/07/10 11:14:49;;;;;;;2.40;0.80;;;39.70;38.70;;;;;;4971192;28;20611;-75
2023/07/10 11:17:15;;;;;;;1.70;0.60;;;39.70;39.10;;;;;;4985996;28;20607;-77
2023/07/10 11:19:42;;;;;;;1.97;0.90;;;39.70;38.90;;;;;;4982717;28;20593;-75
2023/07/10 11:22:21;;;;;;;1.57;0.80;;;39.50;39.10;;;;;;4990668;28;20665;-78
2023/07/10 11:24:49;;;;;;;1.73;0.80;;;39.30;38.30;;;;;;4991697;28;20590;-77
2023/07/10 11:27:31;;;;;;;1.97;0.80;;;39.10;38.60;;;;;;4991866;28;20649;-78
2023/07/10 11:30:12;;;;;;;2.20;0.80;;;38.90;38.80;;;;;;5001980;28;20626;-76
2023/07/10 11:33:03;;;;;;;2.27;1.47;;;38.90;38.80;;;;;;4971753;28;20685;-77
2023/07/10 11:35:30;;;;;;;2.20;0.73;;;38.80;39.00;;;;;;4969761;28;20637;-77
2023/07/10 11:38:01;;;;;;;2.00;0.80;;;38.80;39.00;;;;;;4972998;28;20601;-77
2023/07/10 11:40:27;;;;;;;3.10;1.00;;;38.70;39.30;;;;;;4973940;28;20595;-77
2023/07/10 11:43:20;;;;;;;1.77;0.70;;;38.70;39.30;;;;;;4974680;28;20578;-77
2023/07/10 11:45:52;;;;;;;3.73;0.80;;;38.50;38.70;;;;;;4976799;28;20214;-77
2023/07/10 11:48:38;;;;;;;2.77;0.70;;;38.50;39.40;;;;;;5009698;28;20950;-77
2023/07/10 11:51:24;;;;;;;3.10;0.93;;;38.30;39.00;;;;;;4957431;28;20634;-77
2023/07/10 11:54:10;;;;;;;2.10;0.80;;;38.20;39.10;;;;;;4973126;28;20634;-77
2023/07/10 11:56:37;;;;;;;2.40;0.80;;;38.00;39.60;;;;;;4992402;28;20620;-77
2023/07/10 11:59:21;;;;;;;2.10;1.00;;;37.90;39.60;;;;;;4993830;28;20578;-77
2023/07/10 12:01:47;;;;;;;1.90;0.80;;;37.70;39.40;;;;;;4993846;28;20175;-77
2023/07/10 12:04:15;;;;;;;2.47;0.97;;;37.70;39.80;;;;;;4994342;28;20924;-77
2023/07/10 12:06:45;;;;;;;2.13;1.00;;;37.60;39.60;;;;;;5008982;28;20778;-77
2023/07/10 12:09:11;;;;;;;2.00;0.80;;;37.40;39.00;;;;;;4994042;28;20578;-76
2023/07/10 12:11:39;;;;;;;2.33;0.80;;;37.00;39.00;;;;;;4992100;28;20674;-76
2023/07/10 12:14:10;;;;;;;2.23;0.80;;;36.70;39.30;;;;;;4993172;28;20632;-77
2023/07/10 12:16:42;;;;;;;1.90;0.60;;;36.60;40.00;;;;;;4976066;28;20609;-77
2023/07/10 12:19:22;;;;;;;1.70;0.73;;;36.30;40.10;;;;;;4994301;28;20567;-77
2023/07/10 12:21:47;;;;;;;3.93;0.80;;;36.10;39.80;;;;;;4991980;28;20677;-76
2023/07/10 12:24:16;;;;;;;4.20;1.27;;;35.90;40.10;;;;;;4993331;28;20717;-77
2023/07/10 12:26:42;;;;;;;2.07;0.90;;;35.70;40.30;;;;;;4992691;28;20194;-78
2023/07/10 12:29:13;;;;;;;2.47;0.90;;;35.60;40.40;;;;;;4994110;28;20575;-77
2023/07/10 12:31:40;;;;;;;1.80;0.80;;;35.50;40.50;;;;;;4994165;28;20581;-77
2023/07/10 12:34:30;;;;;;;1.70;0.70;;;35.30;40.70;;;;;;4994129;28;20938;-77
2023/07/10 12:36:58;;;;;;;1.67;0.77;;;35.20;40.80;;;;;;4993792;28;20967;-77
2023/07/10 12:39:24;;;;;;;2.00;0.80;;;35.10;41.00;;;;;;4992551;28;20923;-77
2023/07/10 12:41:53;;;;;;;1.80;0.87;;;35.10;41.00;;;;;;4992579;28;20578;-78
2023/07/10 12:44:25;;;;;;;2.30;0.80;;;34.90;41.00;;;;;;4993546;28;20593;-77
2023/07/10 12:47:08;;;;;;;2.77;0.70;;;34.80;40.60;;;;;;4995056;28;20621;-77
2023/07/10 12:49:35;;;;;;;1.77;0.80;;;34.60;40.50;;;;;;4975486;28;21038;-78
2023/07/10 12:52:05;;;;;;;4.30;0.90;;;34.50;40.30;;;;;;4994066;28;20658;-76
2023/07/10 12:54:47;;;;;;;2.47;0.80;;;34.30;40.00;;;;;;4993520;28;20598;-77